Terminal Aerodrome Forecast
Issued by NWS Bismarck, ND

Home | Current Version | Previous Version | Graphics & Text | Print | Product List | Glossary On
Versions: 1 2 3 4 5 6 7 8 9 10 11 12 13 14 15 16 17 18 19 20 21 22 23 24 25
175
FTUS43 KBIS 112110 AAB
TAFBIS
TAF AMD
KBIS 112110Z 1121/1218 35014G19KT P6SM SCT035
      TEMPO 1121/1123 BKN025
     FM112300 31008KT P6SM SCT020 BKN045
     FM120900 27005KT P6SM FEW060 SCT150
     FM121300 27004KT P6SM SCT080 BKN110=

USA.gov is the U.S. government's official web portal to all federal, state and local government web resources and services.